Mesa Verde National Park, Colorado
Current Conditions -  °F | °C
As of 8:39 PM on Monday 22 Dec 2014 (Local Time) from KCEZ Reporting Station
Light Snow Light Snow  
Wind Chill: -4°   Ceiling: 3400
Heat Index:   Visibility: 9mi
Dew Point: -1°   Wind: 15mph
Humidity: 85%   Direction: 330°NNW
Pressure: 29.9"   Gusts: 24mph
Location:  37.1877°N, 108.492°W
Report Text: KCEZ 230339Z AUTO 33013G21KT 9SM -SN OVC034 01/M01 A2990 RMK AO2 PK WND 33033/0320 SNB05 P0000 T00111011
Loading
Personal Weather Stations






























Interactive Weather Map New forecast layout! Learn more

10-Day Weather Forecast

Advertisements
Track Severe Weather on mobile